Time;durP1;ratioP1;P1;durP2;ratioP2;P2;SDS_P1;SDS_P2;PMS_P1;PMS_P2;Temp;Humidity;BMP_temperature;BMP_pressure;BME280_temperature;BME280_humidity;BME280_pressure;Samples;Min_cycle;Max_cycle;Signal;HPM_P1;HPM_P2
2023/07/27 00:02:23;;;;;;;8.23;5.97;;;461.40;2380.80;;;;;;5088594;28;20082;-58
2023/07/27 00:04:49;;;;;;;7.43;5.65;;;461.40;2380.80;;;;;;5088540;28;20158;-58
2023/07/27 00:07:14;;;;;;;7.97;6.13;;;461.40;2380.80;;;;;;5087991;28;20054;-58
2023/07/27 00:09:40;;;;;;;6.65;5.45;;;461.30;2380.80;;;;;;5089026;28;20036;-58
2023/07/27 00:12:06;;;;;;;10.20;5.28;;;461.30;2380.80;;;;;;5089082;28;20036;-58
2023/07/27 00:14:32;;;;;;;8.40;6.03;;;461.30;2380.80;;;;;;5088519;28;20024;-58
2023/07/27 00:16:58;;;;;;;7.18;5.13;;;461.20;2380.80;;;;;;5088233;28;20032;-58
2023/07/27 00:19:24;;;;;;;9.43;5.82;;;461.30;2380.80;;;;;;5088529;28;20230;-58
2023/07/27 00:21:49;;;;;;;7.82;5.93;;;461.20;2380.80;;;;;;5087684;28;20020;-58
2023/07/27 00:24:15;;;;;;;8.35;5.18;;;461.20;2380.80;;;;;;5088700;28;20048;-58
2023/07/27 00:26:41;;;;;;;8.60;5.60;;;461.20;2380.80;;;;;;5088043;28;20055;-58
2023/07/27 00:29:08;;;;;;;8.45;5.43;;;461.10;2380.80;;;;;;5090270;28;20063;-59
2023/07/27 00:31:33;;;;;;;10.20;5.40;;;461.10;2380.80;;;;;;5092022;28;20028;-59
2023/07/27 00:33:59;;;;;;;7.28;5.25;;;461.00;2380.80;;;;;;5092128;28;20134;-59
2023/07/27 00:36:25;;;;;;;8.40;5.40;;;461.00;2380.80;;;;;;5091805;28;20034;-58
2023/07/27 00:38:51;;;;;;;7.22;4.35;;;460.90;2380.80;;;;;;5091900;28;20027;-59
2023/07/27 00:41:17;;;;;;;5.88;4.97;;;460.90;2380.80;;;;;;5092125;28;20039;-58
2023/07/27 00:43:43;;;;;;;7.70;4.78;;;460.90;2380.80;;;;;;5080780;28;20103;-59
2023/07/27 00:46:10;;;;;;;7.95;4.47;;;460.90;2380.80;;;;;;5089740;28;20091;-59
2023/07/27 00:48:36;;;;;;;7.25;4.70;;;461.00;2380.80;;;;;;5091918;28;20180;-58
2023/07/27 00:51:02;;;;;;;7.60;4.50;;;460.90;2380.80;;;;;;5090970;28;20556;-59
2023/07/27 00:53:27;;;;;;;6.68;4.93;;;460.80;2380.80;;;;;;5091329;28;20103;-59
2023/07/27 00:55:53;;;;;;;5.75;4.47;;;460.80;2380.80;;;;;;5091345;28;20123;-59
2023/07/27 00:58:19;;;;;;;6.85;4.75;;;460.80;2380.80;;;;;;5091752;28;20031;-59
2023/07/27 01:00:45;;;;;;;7.63;5.22;;;460.80;2380.80;;;;;;5091869;28;20043;-59
2023/07/27 01:03:11;;;;;;;6.72;4.70;;;460.80;2380.80;;;;;;5091471;28;20123;-57
2023/07/27 01:05:37;;;;;;;6.18;4.32;;;460.80;2380.80;;;;;;5091771;28;20103;-59
2023/07/27 01:08:03;;;;;;;8.30;4.53;;;460.80;2380.80;;;;;;5091418;28;20352;-58
2023/07/27 01:10:46;;;;;;;7.22;4.43;;;460.80;2380.80;;;;;;5091568;28;20020;-59
2023/07/27 01:13:32;;;;;;;7.28;5.22;;;460.90;2380.80;;;;;;5091650;28;20017;-59
2023/07/27 01:16:09;;;;;;;8.90;4.75;;;460.80;2380.80;;;;;;5091532;28;20027;-59
2023/07/27 01:18:46;;;;;;;8.65;5.03;;;460.80;2380.80;;;;;;5091395;28;20028;-59
2023/07/27 01:21:19;;;;;;;7.03;4.20;;;460.80;2380.80;;;;;;5091489;28;20432;-59
2023/07/27 01:23:57;;;;;;;6.32;4.53;;;436.10;2355.20;;;;;;5078656;28;20110;-58
2023/07/27 01:26:32;;;;;;;6.88;5.07;;;436.10;2355.20;;;;;;5091620;28;20366;-59
2023/07/27 01:29:16;;;;;;;7.03;5.55;;;436.10;2355.20;;;;;;5091179;28;20048;-59
2023/07/27 01:31:44;;;;;;;7.45;5.18;;;436.10;2355.20;;;;;;5091245;28;20020;-59
2023/07/27 01:34:31;;;;;;;9.10;5.00;;;436.10;2355.20;;;;;;5091393;28;20031;-59
2023/07/27 01:37:05;;;;;;;6.63;4.85;;;436.10;2355.20;;;;;;5091264;28;20398;-58
2023/07/27 01:39:34;;;;;;;8.18;5.80;;;436.10;2355.20;;;;;;5090757;28;20389;-59
2023/07/27 01:42:01;;;;;;;8.73;4.97;;;436.10;2355.20;;;;;;5090644;28;20043;-60
2023/07/27 01:44:29;;;;;;;7.20;5.50;;;436.10;2355.20;;;;;;5091160;28;20023;-59
2023/07/27 01:46:56;;;;;;;9.57;5.53;;;436.10;2355.20;;;;;;5091059;28;20028;-58
2023/07/27 01:49:23;;;;;;;7.20;5.72;;;436.10;2355.20;;;;;;5090829;28;20107;-58
2023/07/27 01:51:50;;;;;;;7.95;6.03;;;436.10;2355.20;;;;;;5091093;28;20055;-59
2023/07/27 01:54:16;;;;;;;7.05;4.95;;;436.10;2355.20;;;;;;5090622;28;20595;-58
2023/07/27 01:56:45;;;;;;;8.32;5.88;;;436.10;2355.20;;;;;;5090403;28;20526;-59
2023/07/27 01:59:11;;;;;;;6.68;5.38;;;436.10;2355.20;;;;;;5090644;28;20077;-58
2023/07/27 02:01:38;;;;;;;8.57;5.65;;;436.10;2355.20;;;;;;5091060;28;20040;-59
2023/07/27 02:04:05;;;;;;;7.85;5.63;;;436.10;2355.20;;;;;;5090606;28;20028;-58
2023/07/27 02:06:31;;;;;;;7.03;5.00;;;436.10;2355.20;;;;;;5090289;28;20032;-58
2023/07/27 02:08:56;;;;;;;6.65;5.05;;;436.10;2355.20;;;;;;5090579;28;20034;-58
2023/07/27 02:11:24;;;;;;;6.22;5.60;;;436.10;2355.20;;;;;;5090814;28;20026;-59
2023/07/27 02:14:34;;;;;;;8.23;4.95;;;436.10;2355.20;;;;;;5090195;28;20498;-59
2023/07/27 02:17:03;;;;;;;9.52;5.22;;;436.10;2355.20;;;;;;5027851;28;20033;-60
2023/07/27 02:19:32;;;;;;;7.15;4.95;;;436.00;2355.20;;;;;;5027333;28;20037;-59
2023/07/27 02:21:59;;;;;;;7.00;4.45;;;436.00;2355.20;;;;;;5026884;28;20443;-59
2023/07/27 02:24:26;;;;;;;7.85;5.07;;;436.00;2355.20;;;;;;5027569;28;20117;-59
2023/07/27 02:26:52;;;;;;;6.88;4.82;;;436.10;2355.20;;;;;;5027316;28;20038;-58
2023/07/27 02:29:18;;;;;;;8.48;4.50;;;436.00;2355.20;;;;;;5027295;28;20488;-58
2023/07/27 02:31:43;;;;;;;8.38;5.25;;;436.00;2355.20;;;;;;5027187;28;20558;-59
2023/07/27 02:34:10;;;;;;;6.47;4.97;;;436.00;2355.20;;;;;;5027355;28;20037;-59
2023/07/27 02:36:35;;;;;;;6.40;4.50;;;436.00;2355.20;;;;;;5027152;28;20116;-58
2023/07/27 02:39:02;;;;;;;6.85;4.88;;;435.90;2355.20;;;;;;5027133;28;20156;-59
2023/07/27 02:41:27;;;;;;;9.57;4.82;;;435.90;2355.20;;;;;;5027185;28;20151;-58
2023/07/27 02:43:53;;;;;;;6.53;4.32;;;435.90;2355.20;;;;;;5026960;28;20499;-59
2023/07/27 02:46:19;;;;;;;7.32;3.92;;;435.90;2355.20;;;;;;5027430;28;20041;-59
2023/07/27 02:48:44;;;;;;;9.65;4.47;;;435.90;2355.20;;;;;;5027386;28;20037;-58
2023/07/27 02:51:10;;;;;;;6.07;4.13;;;435.80;2355.20;;;;;;5027200;28;20033;-59
2023/07/27 02:53:37;;;;;;;8.07;4.60;;;435.70;2355.20;;;;;;5078730;28;20079;-59
2023/07/27 02:56:04;;;;;;;5.60;4.57;;;435.70;2355.20;;;;;;5089145;28;20016;-58
2023/07/27 02:58:29;;;;;;;7.38;4.18;;;435.60;2355.20;;;;;;5089017;28;20089;-59
2023/07/27 03:01:04;;;;;;;5.60;3.75;;;435.60;2355.20;;;;;;5089242;28;20444;-58
2023/07/27 03:03:30;;;;;;;6.45;4.35;;;435.50;2355.20;;;;;;5089239;28;20020;-59
2023/07/27 03:06:02;;;;;;;5.05;3.80;;;435.40;2355.20;;;;;;5089507;28;20054;-58
2023/07/27 03:08:30;;;;;;;5.43;3.88;;;435.30;2355.20;;;;;;5089547;28;20089;-58
2023/07/27 03:11:01;;;;;;;4.40;3.80;;;435.30;2355.20;;;;;;5089629;28;20020;-58
2023/07/27 03:13:27;;;;;;;4.88;4.15;;;435.30;2355.20;;;;;;5089497;28;20043;-58
2023/07/27 03:15:53;;;;;;;4.07;3.28;;;435.30;2355.20;;;;;;5088916;28;20482;-58
2023/07/27 03:18:20;;;;;;;5.82;3.58;;;435.30;2355.20;;;;;;5089422;28;20027;-59
2023/07/27 03:20:46;;;;;;;5.18;3.25;;;435.30;2355.20;;;;;;5089262;28;20032;-57
2023/07/27 03:23:12;;;;;;;4.32;3.58;;;435.20;2355.20;;;;;;5089204;28;20024;-58
2023/07/27 03:25:38;;;;;;;5.43;3.85;;;435.20;2355.20;;;;;;5089145;28;20458;-59
2023/07/27 03:28:06;;;;;;;6.90;3.85;;;410.50;2355.20;;;;;;5088645;28;20051;-59
2023/07/27 03:30:32;;;;;;;6.00;3.70;;;410.50;2355.20;;;;;;5088936;28;20039;-59
2023/07/27 03:32:58;;;;;;;4.32;3.53;;;410.50;2355.20;;;;;;5088784;28;20381;-57
2023/07/27 03:35:23;;;;;;;8.52;3.20;;;410.40;2355.20;;;;;;5088939;28;20024;-58
2023/07/27 03:37:50;;;;;;;4.20;3.13;;;410.40;2355.20;;;;;;5088928;28;20024;-58
2023/07/27 03:40:17;;;;;;;6.43;3.30;;;410.50;2355.20;;;;;;5089346;28;20032;-58
2023/07/27 03:42:43;;;;;;;7.07;3.70;;;410.40;2355.20;;;;;;5089035;28;20091;-59
2023/07/27 03:45:09;;;;;;;4.15;3.20;;;410.50;2355.20;;;;;;5089283;28;20108;-58
2023/07/27 03:47:34;;;;;;;5.38;3.30;;;410.50;2355.20;;;;;;5088841;28;20028;-58
2023/07/27 03:50:00;;;;;;;5.15;3.33;;;410.50;2355.20;;;;;;5088431;28;20043;-59
2023/07/27 03:52:26;;;;;;;5.50;3.17;;;410.50;2355.20;;;;;;5088988;28;20466;-59
2023/07/27 03:54:52;;;;;;;6.65;3.25;;;410.50;2355.20;;;;;;5088930;28;20359;-59
2023/07/27 03:57:17;;;;;;;6.10;3.35;;;410.50;2355.20;;;;;;5088881;28;20027;-57
2023/07/27 03:59:43;;;;;;;4.82;2.60;;;435.20;2355.20;;;;;;5088905;28;20036;-59
2023/07/27 04:02:08;;;;;;;4.75;3.53;;;435.30;2355.20;;;;;;5088934;28;20032;-58
2023/07/27 04:04:34;;;;;;;6.93;3.25;;;435.50;2355.20;;;;;;5091380;28;20032;-59
2023/07/27 04:07:00;;;;;;;3.60;3.08;;;435.60;2355.20;;;;;;5092655;28;20046;-59
2023/07/27 04:09:25;;;;;;;7.97;2.95;;;435.70;2355.20;;;;;;5093194;28;20031;-59
2023/07/27 04:11:52;;;;;;;4.40;2.83;;;435.90;2355.20;;;;;;5092451;28;20524;-59
2023/07/27 04:14:18;;;;;;;3.92;2.72;;;436.00;2355.20;;;;;;5093195;28;20024;-58
2023/07/27 04:16:43;;;;;;;4.63;3.13;;;436.00;2355.20;;;;;;5092827;28;20016;-58
2023/07/27 04:19:09;;;;;;;4.55;3.28;;;460.80;2380.80;;;;;;5093273;28;20370;-59
2023/07/27 04:21:35;;;;;;;3.67;2.60;;;461.00;2380.80;;;;;;5092524;28;20071;-59
2023/07/27 04:24:01;;;;;;;3.70;2.70;;;461.00;2380.80;;;;;;5092384;28;20031;-59
2023/07/27 04:26:27;;;;;;;4.53;2.53;;;461.10;2380.80;;;;;;5092812;28;20073;-57
2023/07/27 04:28:52;;;;;;;4.45;2.75;;;461.10;2380.80;;;;;;5092083;28;20378;-59
2023/07/27 04:31:18;;;;;;;3.97;2.72;;;461.00;2380.80;;;;;;5092170;28;20051;-59
2023/07/27 04:33:44;;;;;;;3.90;2.97;;;461.10;2380.80;;;;;;5090888;28;20028;-59
2023/07/27 04:36:09;;;;;;;5.78;2.67;;;461.30;2380.80;;;;;;5092091;28;20036;-59
2023/07/27 04:38:35;;;;;;;3.17;2.28;;;461.30;2380.80;;;;;;5092069;28;20529;-60
2023/07/27 04:41:01;;;;;;;3.25;2.50;;;461.30;2380.80;;;;;;5076757;28;20050;-59
2023/07/27 04:43:27;;;;;;;3.45;2.55;;;461.20;2380.80;;;;;;5086442;28;20027;-59
2023/07/27 04:45:52;;;;;;;2.67;2.22;;;461.40;2380.80;;;;;;5074568;28;20094;-58
2023/07/27 04:48:18;;;;;;;3.65;2.40;;;461.30;2380.80;;;;;;5091933;28;20052;-58
2023/07/27 04:50:44;;;;;;;3.67;2.72;;;461.40;2380.80;;;;;;5091625;28;20112;-59
2023/07/27 04:53:09;;;;;;;3.25;2.15;;;461.50;2380.80;;;;;;5091286;28;20410;-58
2023/07/27 04:55:35;;;;;;;5.95;2.42;;;461.40;2380.80;;;;;;5092322;28;20112;-58
2023/07/27 04:58:00;;;;;;;4.20;2.58;;;461.60;2380.80;;;;;;5079792;28;20031;-58
2023/07/27 05:00:26;;;;;;;3.67;2.33;;;461.50;2380.80;;;;;;5092009;28;20030;-58
2023/07/27 05:02:52;;;;;;;5.13;2.38;;;461.70;2380.80;;;;;;5092000;28;20020;-60
2023/07/27 05:05:17;;;;;;;3.67;1.95;;;486.50;2380.80;;;;;;5080426;28;20025;-62
2023/07/27 05:07:44;;;;;;;7.15;2.65;;;486.70;2380.80;;;;;;5088724;28;20048;-59
2023/07/27 05:10:10;;;;;;;3.70;2.70;;;487.10;2380.80;;;;;;5076224;28;20430;-60
2023/07/27 05:12:36;;;;;;;7.60;2.63;;;512.00;2380.80;;;;;;5079458;28;20107;-61
2023/07/27 05:15:01;;;;;;;5.68;2.97;;;538.10;2406.40;;;;;;5080237;28;20111;-61
2023/07/27 05:17:27;;;;;;;9.25;2.90;;;665.60;2176.00;;;;;;5083140;28;20026;-59
2023/07/27 05:19:56;;;;;;;5.10;2.30;;;742.90;1843.20;;;;;;5091261;28;20420;-59
2023/07/27 05:22:21;;;;;;;5.65;2.97;;;743.00;1740.80;;;;;;5091372;28;20036;-60
2023/07/27 05:24:47;;;;;;;3.55;2.53;;;794.50;1612.80;;;;;;5091435;28;20450;-59
2023/07/27 05:27:13;;;;;;;3.40;2.45;;;768.80;1561.60;;;;;;5091328;28;20032;-60
2023/07/27 05:29:38;;;;;;;5.18;2.63;;;743.20;1612.80;;;;;;5091602;28;20020;-59
2023/07/27 05:32:04;;;;;;;3.67;2.20;;;666.50;1766.40;;;;;;5091288;28;20500;-59
2023/07/27 05:34:30;;;;;;;5.30;2.63;;;615.20;1894.40;;;;;;5091184;28;20351;-60
2023/07/27 05:36:56;;;;;;;3.63;2.35;;;589.10;1996.80;;;;;;5073336;28;20028;-59
2023/07/27 05:39:21;;;;;;;4.57;2.38;;;563.60;2099.20;;;;;;5072173;28;20024;-59
2023/07/27 05:41:47;;;;;;;3.70;2.08;;;538.50;2124.80;;;;;;5072524;28;20036;-59
2023/07/27 05:44:13;;;;;;;3.22;2.33;;;538.30;2150.40;;;;;;5091015;28;20046;-59
2023/07/27 05:46:38;;;;;;;3.65;2.50;;;538.00;2201.60;;;;;;5091299;28;20367;-58
2023/07/27 05:49:05;;;;;;;4.50;2.42;;;537.70;2227.20;;;;;;5091133;28;20110;-60
2023/07/27 05:51:31;;;;;;;3.55;2.40;;;537.80;2252.80;;;;;;5090628;28;20034;-59
2023/07/27 05:53:56;;;;;;;3.85;2.08;;;512.80;2252.80;;;;;;5091397;28;20025;-59
2023/07/27 05:56:22;;;;;;;4.15;2.10;;;512.80;2278.40;;;;;;5090751;28;20122;-59
2023/07/27 05:58:48;;;;;;;4.10;2.25;;;512.50;2304.00;;;;;;5090918;28;20099;-59
2023/07/27 06:01:16;;;;;;;4.45;2.50;;;512.70;2304.00;;;;;;5090724;28;20130;-59
2023/07/27 06:03:42;;;;;;;3.75;2.55;;;512.60;2278.40;;;;;;5091052;28;20029;-59
2023/07/27 06:06:08;;;;;;;3.60;2.70;;;512.60;2304.00;;;;;;5090864;28;20104;-59
2023/07/27 06:08:33;;;;;;;4.07;2.80;;;537.80;2278.40;;;;;;5090303;28;20101;-59
2023/07/27 06:11:09;;;;;;;5.88;3.55;;;589.20;2124.80;;;;;;5090910;28;20525;-59
2023/07/27 06:13:35;;;;;;;5.88;3.17;;;743.10;1715.20;;;;;;5090741;28;20028;-59
2023/07/27 06:16:02;;;;;;;3.30;2.63;;;768.20;1638.40;;;;;;5090702;28;20028;-59
2023/07/27 06:18:28;;;;;;;3.92;3.63;;;768.70;1587.20;;;;;;5090595;28;20059;-59
2023/07/27 06:20:54;;;;;;;4.20;3.58;;;870.50;1408.00;;;;;;5090050;28;20060;-59
2023/07/27 06:23:20;;;;;;;4.18;3.50;;;896.00;1356.80;;;;;;5090414;28;20016;-60
2023/07/27 06:25:46;;;;;;;3.92;3.30;;;896.90;1280.00;;;;;;5090671;28;20081;-60
2023/07/27 06:28:12;;;;;;;3.65;3.30;;;896.80;1280.00;;;;;;5090142;28;20405;-60
2023/07/27 06:30:38;;;;;;;5.10;4.70;;;922.20;1254.40;;;;;;5090312;28;20024;-60
2023/07/27 06:33:05;;;;;;;4.40;4.00;;;922.00;1254.40;;;;;;5089927;28;20107;-60
2023/07/27 06:35:32;;;;;;;5.97;4.30;;;947.30;1203.20;;;;;;5089948;28;20035;-60
2023/07/27 06:37:57;;;;;;;4.45;4.05;;;948.00;1152.00;;;;;;5089379;28;20039;-62
2023/07/27 06:40:24;;;;;;;5.10;4.70;;;973.60;1152.00;;;;;;5089530;28;20030;-62
2023/07/27 06:42:49;;;;;;;5.43;4.93;;;999.20;1126.40;;;;;;5090376;28;20602;-62
2023/07/27 06:45:15;;;;;;;5.65;5.25;;;1049.70;1100.80;;;;;;5090094;28;20466;-62
2023/07/27 06:47:41;;;;;;;5.57;5.05;;;1075.40;1049.60;;;;;;5090147;28;20570;-63
2023/07/27 06:50:07;;;;;;;5.20;4.70;;;1050.20;1075.20;;;;;;5089829;28;20073;-62
2023/07/27 06:52:33;;;;;;;5.68;5.28;;;1049.60;1100.80;;;;;;5089532;28;20473;-62
2023/07/27 06:54:58;;;;;;;5.70;5.20;;;1075.80;998.40;;;;;;5089788;28;20028;-62
2023/07/27 06:57:27;;;;;;;5.65;5.22;;;1075.80;1024.00;;;;;;5089743;28;20081;-62
2023/07/27 06:59:53;;;;;;;5.40;4.90;;;1075.50;998.40;;;;;;5089633;28;20056;-63
2023/07/27 07:02:19;;;;;;;6.18;5.50;;;1075.30;998.40;;;;;;5089752;28;20094;-62
2023/07/27 07:04:45;;;;;;;5.95;5.55;;;1050.10;1024.00;;;;;;5090084;28;20028;-63
2023/07/27 07:07:11;;;;;;;5.03;4.63;;;1050.30;998.40;;;;;;5089360;28;20032;-63
2023/07/27 07:09:38;;;;;;;6.15;5.75;;;1100.80;998.40;;;;;;5089651;28;20103;-62
2023/07/27 07:12:05;;;;;;;6.13;5.63;;;1100.90;998.40;;;;;;5089885;28;20024;-63
2023/07/27 07:14:31;;;;;;;6.72;6.22;;;1050.50;998.40;;;;;;5089529;28;20099;-62
2023/07/27 07:16:58;;;;;;;6.20;5.60;;;1075.20;998.40;;;;;;5089274;28;20028;-62
2023/07/27 07:19:24;;;;;;;6.38;5.78;;;1075.30;998.40;;;;;;5089216;28;20020;-61
2023/07/27 07:21:49;;;;;;;6.28;5.78;;;1075.70;972.80;;;;;;5089528;28;20128;-65
2023/07/27 07:24:15;;;;;;;6.03;5.63;;;1101.00;998.40;;;;;;5089802;28;20419;-63
2023/07/27 07:26:41;;;;;;;6.60;6.00;;;1049.90;1024.00;;;;;;5089461;28;20088;-61
2023/07/27 07:29:07;;;;;;;6.40;6.00;;;1075.20;972.80;;;;;;5089349;28;20490;-63
2023/07/27 07:31:33;;;;;;;6.25;5.85;;;1100.80;972.80;;;;;;5089313;28;20323;-59
2023/07/27 07:33:59;;;;;;;6.35;5.95;;;1101.20;972.80;;;;;;5089411;28;20028;-60
2023/07/27 07:36:25;;;;;;;5.93;5.45;;;1101.30;998.40;;;;;;5089121;28;20020;-60
2023/07/27 07:38:51;;;;;;;6.32;5.90;;;1126.40;972.80;;;;;;5088621;28;20385;-61
2023/07/27 07:41:17;;;;;;;6.18;5.68;;;1126.60;972.80;;;;;;5089323;28;20040;-61
2023/07/27 07:43:43;;;;;;;6.22;5.72;;;1127.30;947.20;;;;;;5088753;28;20088;-61
2023/07/27 07:46:12;;;;;;;6.60;6.13;;;1101.60;972.80;;;;;;5089211;28;20024;-60
2023/07/27 07:48:38;;;;;;;6.50;6.10;;;1152.10;947.20;;;;;;5089229;28;20062;-61
2023/07/27 07:51:12;;;;;;;6.18;5.70;;;1152.20;921.60;;;;;;5088822;28;20099;-61
2023/07/27 07:53:38;;;;;;;6.10;5.65;;;1152.10;921.60;;;;;;5089364;28;20032;-61
2023/07/27 07:56:05;;;;;;;12.82;6.93;;;1127.30;947.20;;;;;;5088936;28;20394;-61
2023/07/27 07:58:31;;;;;;;8.25;5.78;;;1152.20;921.60;;;;;;5088495;28;20032;-61
2023/07/27 08:00:57;;;;;;;7.03;6.53;;;1152.10;947.20;;;;;;5089015;28;20458;-60
2023/07/27 08:03:23;;;;;;;6.18;5.68;;;1101.70;921.60;;;;;;5088706;28;20020;-60
2023/07/27 08:05:48;;;;;;;5.85;5.30;;;1101.30;947.20;;;;;;5089016;28;20021;-60
2023/07/27 08:08:14;;;;;;;5.75;5.35;;;1126.40;947.20;;;;;;5088480;28;20016;-61
2023/07/27 08:10:40;;;;;;;9.48;6.03;;;1101.70;921.60;;;;;;5089387;28;20103;-61
2023/07/27 08:13:06;;;;;;;7.03;6.20;;;1101.50;947.20;;;;;;5089044;28;20474;-60
2023/07/27 08:15:31;;;;;;;6.22;5.82;;;1126.40;972.80;;;;;;5088859;28;20093;-60
2023/07/27 08:17:57;;;;;;;6.13;5.60;;;1126.70;947.20;;;;;;5078137;28;20471;-60
2023/07/27 08:20:23;;;;;;;6.22;5.72;;;1101.30;921.60;;;;;;5083790;28;20390;-60
2023/07/27 08:22:49;;;;;;;5.50;5.10;;;1101.10;947.20;;;;;;5067625;28;20036;-62
2023/07/27 08:25:14;;;;;;;5.25;4.75;;;1076.10;947.20;;;;;;5070467;28;20028;-59
2023/07/27 08:27:41;;;;;;;6.03;5.43;;;1050.40;972.80;;;;;;5068166;28;20040;-62
2023/07/27 08:30:07;;;;;;;4.70;4.20;;;973.70;1024.00;;;;;;5074298;28;20029;-60
2023/07/27 08:32:34;;;;;;;4.00;3.60;;;896.90;1100.80;;;;;;5088719;28;20087;-60
2023/07/27 08:35:00;;;;;;;3.45;2.85;;;845.00;1228.80;;;;;;5088633;28;20574;-59
2023/07/27 08:37:25;;;;;;;4.95;2.75;;;794.20;1280.00;;;;;;5088884;28;20020;-60
2023/07/27 08:39:51;;;;;;;4.35;2.50;;;768.80;1254.40;;;;;;5088487;28;20032;-60
2023/07/27 08:42:18;;;;;;;4.65;2.90;;;743.30;1331.20;;;;;;5088783;28;20381;-60
2023/07/27 08:44:44;;;;;;;3.97;2.60;;;742.80;1382.40;;;;;;5088642;28;20023;-60
2023/07/27 08:47:11;;;;;;;3.40;2.75;;;717.70;1382.40;;;;;;5088624;28;20122;-60
2023/07/27 08:49:37;;;;;;;3.13;2.65;;;717.40;1382.40;;;;;;5076395;28;20021;-60
2023/07/27 08:52:04;;;;;;;2.65;2.35;;;717.00;1433.60;;;;;;5092084;28;20028;-59
2023/07/27 08:54:30;;;;;;;3.42;2.35;;;692.10;1433.60;;;;;;5092538;28;20058;-59
2023/07/27 08:56:55;;;;;;;4.25;2.60;;;716.90;1433.60;;;;;;5091882;28;20024;-59
2023/07/27 08:59:24;;;;;;;3.42;2.50;;;691.90;1408.00;;;;;;5091924;28;20111;-59
2023/07/27 09:01:50;;;;;;;3.92;2.78;;;691.80;1433.60;;;;;;5090560;28;20032;-59
2023/07/27 09:04:16;;;;;;;3.97;2.40;;;691.60;1459.20;;;;;;5091421;28;20382;-59
2023/07/27 09:06:44;;;;;;;5.15;2.72;;;692.00;1433.60;;;;;;5091658;28;20027;-59
2023/07/27 09:09:25;;;;;;;3.63;2.53;;;691.90;1433.60;;;;;;5078622;28;20281;-60
2023/07/27 09:11:51;;;;;;;4.72;2.70;;;692.10;1433.60;;;;;;5084951;28;20432;-59
2023/07/27 09:14:20;;;;;;;3.58;2.35;;;717.00;1459.20;;;;;;5079962;28;20020;-58
2023/07/27 09:16:48;;;;;;;4.00;2.40;;;691.70;1459.20;;;;;;5071850;28;20036;-59
2023/07/27 09:19:16;;;;;;;4.18;2.75;;;691.70;1459.20;;;;;;5071342;28;20035;-59
2023/07/27 09:21:44;;;;;;;3.40;2.50;;;691.50;1510.40;;;;;;5077338;28;20047;-59
2023/07/27 09:24:14;;;;;;;2.42;1.90;;;691.80;1484.80;;;;;;5081071;28;20028;-59
2023/07/27 09:26:58;;;;;;;3.20;2.30;;;691.70;1459.20;;;;;;5071481;28;20027;-60
2023/07/27 09:29:24;;;;;;;4.35;2.47;;;691.40;1459.20;;;;;;5083299;28;20398;-59
2023/07/27 09:31:58;;;;;;;3.58;2.58;;;691.50;1484.80;;;;;;5076251;28;20021;-58
2023/07/27 09:34:28;;;;;;;3.75;2.60;;;691.70;1484.80;;;;;;5070913;28;20029;-59
2023/07/27 09:36:55;;;;;;;4.15;2.38;;;692.10;1433.60;;;;;;5083992;28;20380;-58
2023/07/27 09:39:24;;;;;;;6.15;2.33;;;691.90;1459.20;;;;;;5075862;28;20036;-58
2023/07/27 09:41:51;;;;;;;3.72;2.40;;;691.80;1433.60;;;;;;5070576;28;20265;-58
2023/07/27 09:44:18;;;;;;;3.08;2.22;;;691.80;1459.20;;;;;;5070283;28;20017;-58
2023/07/27 09:46:44;;;;;;;5.63;2.50;;;691.70;1459.20;;;;;;5069796;28;20020;-58
2023/07/27 09:49:15;;;;;;;4.53;2.53;;;691.80;1459.20;;;;;;5070170;28;20030;-59
2023/07/27 09:51:41;;;;;;;3.13;2.42;;;691.90;1433.60;;;;;;5067595;28;20520;-59
2023/07/27 09:54:07;;;;;;;4.20;2.50;;;692.10;1433.60;;;;;;5070275;28;20036;-59
2023/07/27 09:56:33;;;;;;;6.20;2.85;;;692.10;1459.20;;;;;;5069990;28;20032;-59
2023/07/27 09:59:00;;;;;;;5.25;3.00;;;691.90;1459.20;;;;;;5070028;28;20055;-58
2023/07/27 10:01:26;;;;;;;2.95;2.30;;;692.10;1459.20;;;;;;5069167;28;20556;-59
2023/07/27 10:03:57;;;;;;;5.07;2.88;;;691.90;1459.20;;;;;;5069493;28;20032;-59
2023/07/27 10:06:28;;;;;;;2.92;2.30;;;691.80;1484.80;;;;;;5069992;28;20751;-58
2023/07/27 10:08:54;;;;;;;3.85;2.55;;;691.80;1484.80;;;;;;5071979;28;20654;-59
2023/07/27 10:11:49;;;;;;;5.05;2.72;;;692.10;1484.80;;;;;;5090679;28;20077;-60
2023/07/27 10:14:19;;;;;;;3.00;2.20;;;691.90;1433.60;;;;;;5090167;28;20020;-61
2023/07/27 10:17:07;;;;;;;3.67;2.70;;;691.30;1433.60;;;;;;5090854;28;20024;-60
2023/07/27 10:19:45;;;;;;;3.67;2.70;;;716.80;1433.60;;;;;;5090626;28;20382;-60
2023/07/27 10:22:13;;;;;;;3.75;2.55;;;717.00;1459.20;;;;;;5090466;28;20042;-60
2023/07/27 10:24:59;;;;;;;4.15;2.25;;;716.80;1459.20;;;;;;5090392;28;20016;-60
2023/07/27 10:27:24;;;;;;;5.20;2.63;;;691.90;1408.00;;;;;;5090170;28;20200;-60
2023/07/27 10:30:08;;;;;;;4.65;2.50;;;691.70;1484.80;;;;;;5090281;28;20023;-60
2023/07/27 10:32:35;;;;;;;;;;;691.80;1484.80;;;;;;5090679;28;20035;-60
2023/07/27 10:35:07;;;;;;;3.58;2.25;;;691.70;1484.80;;;;;;5089905;28;19908;-60
2023/07/27 10:37:54;;;;;;;3.50;2.50;;;691.70;1484.80;;;;;;5090144;28;20101;-60
2023/07/27 10:40:29;;;;;;;3.80;2.30;;;691.40;1433.60;;;;;;5090037;28;20474;-61
2023/07/27 10:42:56;;;;;;;4.45;2.20;;;691.30;1459.20;;;;;;5080157;28;20058;-59
2023/07/27 10:45:26;;;;;;;3.92;2.58;;;691.30;1484.80;;;;;;5069083;28;20105;-59
2023/07/27 10:47:56;;;;;;;5.00;2.50;;;691.40;1459.20;;;;;;5081367;28;20155;-60
2023/07/27 10:50:23;;;;;;;3.00;2.15;;;691.20;1459.20;;;;;;5068823;28;20462;-59
2023/07/27 10:52:53;;;;;;;4.32;2.55;;;691.40;1510.40;;;;;;5067804;28;20036;-60
2023/07/27 10:55:20;;;;;;;6.45;2.80;;;691.20;1459.20;;;;;;5068909;28;20024;-59
2023/07/27 10:57:47;;;;;;;5.40;2.45;;;666.40;1510.40;;;;;;5069085;28;20478;-60
2023/07/27 11:00:13;;;;;;;3.60;2.17;;;666.30;1510.40;;;;;;5083185;28;20040;-60
2023/07/27 11:02:44;;;;;;;3.45;2.47;;;666.20;1510.40;;;;;;5070571;28;20037;-59
2023/07/27 11:05:12;;;;;;;3.33;2.13;;;666.00;1510.40;;;;;;5068522;28;20078;-61
2023/07/27 11:07:42;;;;;;;4.78;2.55;;;666.20;1561.60;;;;;;5068560;28;20478;-60
2023/07/27 11:10:10;;;;;;;4.53;2.72;;;691.20;1536.00;;;;;;5068842;28;20054;-59
2023/07/27 11:12:49;;;;;;;4.45;2.80;;;691.60;1561.60;;;;;;5068266;28;20032;-60
2023/07/27 11:15:24;;;;;;;3.05;2.53;;;691.20;1510.40;;;;;;5068512;28;20027;-59
2023/07/27 11:17:51;;;;;;;5.43;2.58;;;691.30;1561.60;;;;;;5068695;28;20542;-59
2023/07/27 11:20:21;;;;;;;4.82;2.22;;;691.20;1510.40;;;;;;5068700;28;20020;-59
2023/07/27 11:22:48;;;;;;;4.70;2.53;;;691.20;1510.40;;;;;;5068375;28;20040;-58
2023/07/27 11:25:14;;;;;;;3.45;2.85;;;691.60;1484.80;;;;;;5068165;28;20021;-58
2023/07/27 11:27:41;;;;;;;5.60;2.55;;;691.20;1536.00;;;;;;5068672;28;20429;-60
2023/07/27 11:30:12;;;;;;;3.03;2.53;;;691.50;1510.40;;;;;;5074938;28;20017;-59
2023/07/27 11:32:38;;;;;;;4.60;2.40;;;691.50;1484.80;;;;;;5078018;28;20099;-60
2023/07/27 11:35:04;;;;;;;7.72;2.78;;;691.30;1433.60;;;;;;5086297;28;20100;-61
2023/07/27 11:37:31;;;;;;;5.95;2.58;;;691.20;1433.60;;;;;;5088505;28;20051;-61
2023/07/27 11:39:57;;;;;;;3.38;2.50;;;666.40;1459.20;;;;;;5088757;28;20027;-60
2023/07/27 11:42:35;;;;;;;5.82;2.85;;;666.30;1459.20;;;;;;5088101;28;20036;-60
2023/07/27 11:45:01;;;;;;;3.20;2.38;;;666.30;1484.80;;;;;;5087572;28;20027;-60
2023/07/27 11:47:35;;;;;;;4.10;2.65;;;691.20;1484.80;;;;;;5088426;28;20052;-60
2023/07/27 11:50:01;;;;;;;3.60;2.80;;;691.60;1459.20;;;;;;5088986;28;20026;-60
2023/07/27 11:52:27;;;;;;;3.13;2.28;;;691.50;1433.60;;;;;;5089175;28;20024;-60
2023/07/27 11:54:55;;;;;;;4.30;2.78;;;666.40;1459.20;;;;;;5088352;28;20110;-59
2023/07/27 11:57:24;;;;;;;4.70;2.50;;;666.50;1459.20;;;;;;5087683;28;20040;-59
2023/07/27 12:00:13;;;;;;;4.22;2.63;;;666.30;1459.20;;;;;;5088336;28;20085;-60
2023/07/27 12:02:46;;;;;;;4.20;2.80;;;691.30;1484.80;;;;;;5088961;28;20028;-58
2023/07/27 12:05:15;;;;;;;3.63;2.47;;;666.20;1433.60;;;;;;5088744;28;20029;-59
2023/07/27 12:07:42;;;;;;;5.22;2.88;;;666.10;1484.80;;;;;;5088592;28;20076;-59
2023/07/27 12:10:18;;;;;;;4.35;2.70;;;666.20;1510.40;;;;;;5085704;28;20326;-58
2023/07/27 12:13:05;;;;;;;3.03;2.30;;;666.30;1459.20;;;;;;5069209;28;20029;-59
2023/07/27 12:15:32;;;;;;;3.22;2.20;;;691.20;1484.80;;;;;;5088651;28;20024;-60
2023/07/27 12:18:03;;;;;;;3.78;2.40;;;691.30;1433.60;;;;;;5068629;28;20028;-59
2023/07/27 12:20:31;;;;;;;4.15;2.70;;;691.20;1433.60;;;;;;5068560;28;20044;-58
2023/07/27 12:22:57;;;;;;;3.30;2.53;;;666.10;1459.20;;;;;;5068407;28;20032;-58